createdAt,value
2018-02-17T00:00:40.561Z,1.30
2018-02-17T00:03:07.527Z,1.30
2018-02-17T00:05:34.507Z,1.20
2018-02-17T00:08:01.400Z,1.00
2018-02-17T00:10:28.396Z,1.10
2018-02-17T00:12:56.061Z,1.00
2018-02-17T00:15:23.748Z,0.90
2018-02-17T00:17:50.620Z,0.90
2018-02-17T00:20:17.552Z,0.90
2018-02-17T00:22:48.386Z,1.00
2018-02-17T00:25:15.329Z,1.00
2018-02-17T00:27:42.267Z,1.10
2018-02-17T00:30:09.140Z,1.10
2018-02-17T00:32:36.082Z,1.00
2018-02-17T00:35:03.007Z,1.00
2018-02-17T00:37:29.949Z,1.00
2018-02-17T00:39:57.562Z,0.90
2018-02-17T00:42:24.432Z,0.90
2018-02-17T00:44:51.412Z,0.90
2018-02-17T00:47:18.291Z,1.00
2018-02-17T00:49:45.175Z,1.10
2018-02-17T00:52:12.132Z,1.10
2018-02-17T00:54:39.008Z,1.10
2018-02-17T00:57:05.993Z,1.00
2018-02-17T00:59:32.938Z,0.90
2018-02-17T01:01:59.947Z,1.00
2018-02-17T01:04:26.822Z,1.10
2018-02-17T01:06:53.839Z,1.00
2018-02-17T01:09:20.724Z,0.90
2018-02-17T01:11:47.694Z,0.70
2018-02-17T01:14:14.615Z,0.60
2018-02-17T01:16:41.558Z,0.80
2018-02-17T01:19:08.535Z,0.60
2018-02-17T01:21:35.413Z,0.70
2018-02-17T01:24:03.118Z,0.90
2018-02-17T01:26:29.985Z,0.80
2018-02-17T01:28:56.855Z,0.90
2018-02-17T01:31:23.835Z,1.00
2018-02-17T01:33:50.702Z,1.10
2018-02-17T01:36:17.664Z,0.90
2018-02-17T01:38:44.535Z,0.90
2018-02-17T01:41:11.417Z,0.70
2018-02-17T01:43:38.408Z,0.60
2018-02-17T01:46:05.347Z,0.40
2018-02-17T01:48:32.292Z,0.40
2018-02-17T01:50:59.254Z,0.50
2018-02-17T01:53:26.208Z,0.50
2018-02-17T01:55:53.197Z,0.40
2018-02-17T01:58:20.209Z,0.60
2018-02-17T02:00:47.269Z,0.60
2018-02-17T02:03:14.279Z,0.70
2018-02-17T02:05:41.155Z,0.60
2018-02-17T02:08:08.166Z,0.60
2018-02-17T02:10:35.162Z,0.60
2018-02-17T02:13:02.029Z,0.60
2018-02-17T02:15:28.895Z,0.60
2018-02-17T02:17:55.841Z,0.60
2018-02-17T02:20:22.723Z,0.50
2018-02-17T02:22:49.648Z,0.50
2018-02-17T02:25:16.522Z,0.60
2018-02-17T02:27:43.455Z,0.40
2018-02-17T02:30:10.352Z,0.50
2018-02-17T02:32:37.337Z,0.40
2018-02-17T02:35:04.212Z,0.50
2018-02-17T02:37:31.149Z,0.50
2018-02-17T02:39:58.082Z,0.60
2018-02-17T02:42:24.988Z,0.60
2018-02-17T02:44:52.019Z,0.80
2018-02-17T02:47:18.927Z,0.90
2018-02-17T02:49:45.865Z,0.80
2018-02-17T02:52:12.803Z,0.80
2018-02-17T02:54:39.687Z,0.80
2018-02-17T02:57:07.368Z,0.60
2018-02-17T02:59:34.975Z,0.60
2018-02-17T03:02:01.939Z,0.60
2018-02-17T03:04:28.860Z,0.70
2018-02-17T03:06:55.740Z,0.60
2018-02-17T03:09:22.788Z,0.70
2018-02-17T03:11:49.672Z,0.80
2018-02-17T03:14:16.617Z,0.70
2018-02-17T03:16:43.495Z,0.70
2018-02-17T03:19:10.426Z,0.80
2018-02-17T03:21:37.290Z,0.70
2018-02-17T03:24:04.241Z,0.80
2018-02-17T03:26:31.147Z,0.60
2018-02-17T03:28:58.025Z,0.80
2018-02-17T03:31:24.969Z,0.80
2018-02-17T03:33:52.694Z,1.00
2018-02-17T03:36:20.381Z,1.00
2018-02-17T03:38:47.264Z,0.90
2018-02-17T03:41:14.203Z,1.10
2018-02-17T03:43:41.112Z,1.10
2018-02-17T03:46:08.000Z,1.10
2018-02-17T03:48:34.957Z,1.10
2018-02-17T03:51:01.996Z,1.10
2018-02-17T03:53:28.952Z,1.20
2018-02-17T03:55:55.823Z,1.00
2018-02-17T03:58:22.760Z,1.00
2018-02-17T04:00:50.441Z,0.90
2018-02-17T04:03:17.435Z,0.90
2018-02-17T04:05:44.384Z,0.80
2018-02-17T04:08:11.319Z,0.90
2018-02-17T04:10:38.325Z,0.90
2018-02-17T04:13:05.204Z,0.90
2018-02-17T04:15:32.070Z,0.80
2018-02-17T04:17:59.055Z,0.80
2018-02-17T04:20:25.935Z,0.70
2018-02-17T04:22:52.856Z,0.70
2018-02-17T04:25:19.727Z,0.90
2018-02-17T04:27:46.664Z,0.90
2018-02-17T04:30:13.606Z,0.80
2018-02-17T04:32:40.545Z,1.00
2018-02-17T04:35:07.480Z,1.00
2018-02-17T04:37:34.428Z,1.00
2018-02-17T04:40:02.355Z,0.80
2018-02-17T04:42:47.096Z,0.90
2018-02-17T04:45:17.926Z,0.70
2018-02-17T04:47:46.724Z,0.80
2018-02-17T04:50:28.514Z,0.80
2018-02-17T04:53:00.334Z,0.80
2018-02-17T04:55:33.193Z,0.80
2018-02-17T04:58:17.512Z,0.80
2018-02-17T05:00:45.340Z,0.80
2018-02-17T05:03:13.403Z,0.70
2018-02-17T05:05:45.276Z,0.70
2018-02-17T05:08:32.087Z,0.80
2018-02-17T05:10:59.075Z,0.80
2018-02-17T05:13:26.004Z,0.90
2018-02-17T05:16:07.801Z,0.80
2018-02-17T05:18:50.496Z,0.90
2018-02-17T05:21:18.396Z,1.00
2018-02-17T05:23:48.280Z,1.00
2018-02-17T05:26:19.569Z,1.00
2018-02-17T05:28:46.536Z,1.00
2018-02-17T05:31:14.279Z,0.90
2018-02-17T05:33:48.300Z,1.10
2018-02-17T05:36:26.947Z,1.00
2018-02-17T05:38:53.972Z,1.10
2018-02-17T05:41:23.880Z,1.00
2018-02-17T05:43:50.893Z,0.90
2018-02-17T05:46:20.780Z,0.90
2018-02-17T05:48:48.696Z,0.90
2018-02-17T05:51:15.698Z,0.90
2018-02-17T05:53:42.580Z,0.80
2018-02-17T05:56:09.527Z,0.80
2018-02-17T05:58:36.439Z,0.80
2018-02-17T06:01:03.409Z,0.80
2018-02-17T06:03:30.359Z,0.90
2018-02-17T06:05:57.255Z,0.90
2018-02-17T06:08:24.928Z,1.00
2018-02-17T06:10:52.611Z,1.00
2018-02-17T06:13:19.532Z,1.00
2018-02-17T06:15:48.273Z,1.00
2018-02-17T06:18:15.323Z,1.00
2018-02-17T06:20:42.273Z,0.90
2018-02-17T06:23:09.175Z,0.90
2018-02-17T06:25:36.104Z,0.90
2018-02-17T06:28:03.774Z,0.80
2018-02-17T06:30:31.391Z,0.80
2018-02-17T06:32:58.344Z,0.70
2018-02-17T06:35:25.221Z,0.80
2018-02-17T06:37:52.828Z,0.80
2018-02-17T06:40:19.772Z,0.80
2018-02-17T06:42:46.716Z,1.00
2018-02-17T06:45:13.675Z,1.00
2018-02-17T06:47:40.559Z,1.00
2018-02-17T06:50:08.288Z,1.10
2018-02-17T06:52:35.328Z,1.10
2018-02-17T06:55:02.292Z,1.10
2018-02-17T06:57:29.253Z,1.20
2018-02-17T06:59:56.876Z,1.30
2018-02-17T07:02:23.874Z,1.20
2018-02-17T07:04:51.552Z,1.20
2018-02-17T07:07:18.446Z,1.20
2018-02-17T07:09:45.474Z,1.10
2018-02-17T07:12:12.361Z,1.20
2018-02-17T07:14:39.365Z,1.30
2018-02-17T07:17:06.282Z,1.30
2018-02-17T07:19:33.169Z,1.30
2018-02-17T07:22:00.193Z,1.50
2018-02-17T07:24:27.142Z,1.40
2018-02-17T07:26:54.083Z,1.50
2018-02-17T07:29:21.017Z,1.50
2018-02-17T07:31:47.887Z,1.40
2018-02-17T07:34:14.835Z,1.40
2018-02-17T07:36:41.715Z,1.60
2018-02-17T07:39:08.643Z,1.60
2018-02-17T07:41:35.521Z,1.70
2018-02-17T07:44:03.259Z,1.60
2018-02-17T07:46:30.128Z,1.60
2018-02-17T07:48:57.755Z,1.90
2018-02-17T07:51:24.721Z,1.80
2018-02-17T07:53:51.581Z,1.90
2018-02-17T07:56:18.520Z,1.80
2018-02-17T07:58:45.376Z,2.00
2018-02-17T08:01:12.327Z,2.00
2018-02-17T08:03:40.031Z,2.00
2018-02-17T08:06:06.908Z,2.00
2018-02-17T08:08:33.913Z,1.90
2018-02-17T08:11:00.848Z,2.30
2018-02-17T08:13:27.800Z,2.40
2018-02-17T08:15:54.657Z,2.40
2018-02-17T08:18:21.603Z,2.70
2018-02-17T08:20:49.104Z,2.60
2018-02-17T08:23:25.149Z,2.70
2018-02-17T08:25:52.077Z,2.70
2018-02-17T08:28:18.992Z,2.50
2018-02-17T08:30:45.947Z,2.30
2018-02-17T08:33:12.933Z,2.10
2018-02-17T08:35:40.945Z,2.10
2018-02-17T08:38:11.193Z,2.20
2018-02-17T08:40:38.789Z,2.20
2018-02-17T08:43:10.260Z,2.10
2018-02-17T08:45:41.181Z,2.20
2018-02-17T08:48:08.240Z,2.00
2018-02-17T08:50:35.915Z,2.00
2018-02-17T08:53:02.864Z,2.10
2018-02-17T08:55:30.731Z,2.00
2018-02-17T08:58:02.091Z,2.10
2018-02-17T09:00:29.064Z,2.10
2018-02-17T09:02:57.784Z,2.20
2018-02-17T09:05:26.466Z,2.40
2018-02-17T09:07:56.593Z,2.40
2018-02-17T09:10:38.037Z,2.40
2018-02-17T09:13:05.463Z,2.30
2018-02-17T09:15:33.761Z,2.20
2018-02-17T09:18:03.270Z,2.20
2018-02-17T09:20:35.020Z,2.20
2018-02-17T09:23:02.886Z,2.30
2018-02-17T09:25:32.005Z,2.30
2018-02-17T09:28:00.507Z,2.50
2018-02-17T09:30:28.613Z,2.50
2018-02-17T09:32:58.523Z,2.60
2018-02-17T09:35:35.971Z,2.50
2018-02-17T09:38:14.738Z,2.70
2018-02-17T09:40:47.377Z,2.80
2018-02-17T09:43:15.948Z,2.60
2018-02-17T09:45:44.896Z,2.80
2018-02-17T09:48:21.572Z,3.00
2018-02-17T09:50:57.485Z,3.00
2018-02-17T09:53:25.350Z,3.20
2018-02-17T09:55:59.551Z,3.10
2018-02-17T09:58:33.752Z,3.40
2018-02-17T10:01:12.850Z,3.40
2018-02-17T10:03:42.987Z,3.70
2018-02-17T10:06:09.996Z,4.10
2018-02-17T10:08:36.941Z,4.30
2018-02-17T10:11:03.801Z,4.50
2018-02-17T10:13:30.745Z,4.50
2018-02-17T10:15:57.637Z,4.60
2018-02-17T10:18:25.792Z,4.60
2018-02-17T10:20:56.063Z,4.60
2018-02-17T10:23:23.191Z,4.60
2018-02-17T10:25:52.249Z,4.60
2018-02-17T10:28:21.134Z,4.50
2018-02-17T10:30:52.180Z,4.40
2018-02-17T10:33:19.958Z,4.70
2018-02-17T10:35:46.938Z,4.70
2018-02-17T10:38:14.280Z,4.60
2018-02-17T10:40:42.627Z,4.40
2018-02-17T10:43:17.529Z,4.70
2018-02-17T10:45:46.970Z,4.90
2018-02-17T10:48:14.698Z,5.00
2018-02-17T10:50:47.956Z,4.90
2018-02-17T10:53:14.997Z,5.10
2018-02-17T10:55:45.430Z,5.20
2018-02-17T10:58:17.794Z,5.10
2018-02-17T11:00:50.204Z,5.20
2018-02-17T11:03:17.972Z,5.10
2018-02-17T11:05:45.994Z,5.10
2018-02-17T11:08:13.693Z,5.20
2018-02-17T11:10:41.391Z,5.30
2018-02-17T11:13:09.089Z,5.30
2018-02-17T11:15:50.912Z,5.20
2018-02-17T11:21:17.406Z,5.30
2018-02-17T11:23:51.567Z,5.20
2018-02-17T11:26:29.961Z,5.30
2018-02-17T11:29:11.616Z,5.40
2018-02-17T11:31:39.881Z,5.30
2018-02-17T11:34:06.976Z,5.50
2018-02-17T11:36:33.928Z,5.30
2018-02-17T11:39:00.906Z,5.10
2018-02-17T11:41:27.823Z,5.10
2018-02-17T11:43:54.765Z,5.30
2018-02-17T11:46:21.739Z,5.00
2018-02-17T11:48:48.957Z,5.10
2018-02-17T11:51:17.823Z,5.30
2018-02-17T11:53:47.052Z,5.20
2018-02-17T11:56:21.645Z,5.50
2018-02-17T11:58:57.792Z,5.60
2018-02-17T12:01:26.097Z,5.20
2018-02-17T12:03:56.719Z,5.20
2018-02-17T12:06:24.064Z,5.10
2018-02-17T12:08:51.024Z,5.20
2018-02-17T12:11:24.997Z,5.20
2018-02-17T12:14:00.785Z,5.40
2018-02-17T12:16:39.507Z,5.70
2018-02-17T12:19:10.564Z,5.70
2018-02-17T12:21:46.095Z,5.70
2018-02-17T12:24:14.038Z,5.90
2018-02-17T12:26:41.727Z,6.00
2018-02-17T12:29:21.902Z,6.00
2018-02-17T12:31:57.395Z,6.00
2018-02-17T12:34:35.894Z,6.20
2018-02-17T12:37:13.523Z,5.90
2018-02-17T12:39:55.257Z,5.90
2018-02-17T12:42:26.717Z,5.90
2018-02-17T12:44:55.925Z,6.00
2018-02-17T12:47:35.985Z,6.10
2018-02-17T12:50:15.085Z,6.10
2018-02-17T12:52:51.160Z,6.20
2018-02-17T12:55:26.566Z,6.20
2018-02-17T12:57:57.585Z,6.20
2018-02-17T13:00:24.648Z,6.50
2018-02-17T13:02:51.590Z,6.30
2018-02-17T13:05:19.423Z,6.40
2018-02-17T13:07:46.478Z,6.50
2018-02-17T13:10:14.076Z,6.60
2018-02-17T13:12:42.053Z,6.60
2018-02-17T13:15:16.044Z,6.20
2018-02-17T13:20:39.429Z,6.10
2018-02-17T13:23:15.336Z,6.10
2018-02-17T13:25:45.850Z,6.30
2018-02-17T13:28:26.343Z,6.50
2018-02-17T13:30:55.315Z,6.40
2018-02-17T13:36:17.416Z,6.50
2018-02-17T13:38:55.472Z,6.50
2018-02-17T13:41:22.833Z,6.40
2018-02-17T13:43:49.713Z,5.90
2018-02-17T13:46:16.701Z,5.90
2018-02-17T13:48:43.668Z,5.70
2018-02-17T13:51:10.831Z,5.80
2018-02-17T13:53:38.169Z,5.80
2018-02-17T13:56:05.663Z,6.00
2018-02-17T13:58:38.266Z,6.00
2018-02-17T14:01:13.972Z,6.00
2018-02-17T14:03:48.823Z,6.00
2018-02-17T14:06:17.655Z,5.80
2018-02-17T14:08:45.116Z,5.90
2018-02-17T14:11:16.197Z,6.10
2018-02-17T14:13:46.582Z,6.10
2018-02-17T14:16:14.934Z,6.30
2018-02-17T14:18:43.090Z,6.20
2018-02-17T14:21:19.494Z,6.20
2018-02-17T14:23:49.308Z,6.20
2018-02-17T14:26:28.366Z,6.10
2018-02-17T14:29:05.923Z,5.90
2018-02-17T14:31:35.464Z,5.70
2018-02-17T14:34:04.786Z,5.70
2018-02-17T14:36:32.460Z,5.70
2018-02-17T14:39:02.056Z,5.70
2018-02-17T14:41:32.696Z,5.70
2018-02-17T14:46:42.971Z,5.70
2018-02-17T14:49:10.523Z,5.60
2018-02-17T14:51:40.789Z,5.70
2018-02-17T14:54:15.007Z,5.80
2018-02-17T14:56:47.475Z,5.80
2018-02-17T14:59:14.981Z,5.90
2018-02-17T15:01:44.077Z,5.80
2018-02-17T15:04:13.846Z,5.40
2018-02-17T15:06:40.997Z,5.40
2018-02-17T15:09:07.937Z,5.60
2018-02-17T15:11:36.197Z,5.40
2018-02-17T15:14:03.350Z,5.60
2018-02-17T15:16:31.101Z,5.60
2018-02-17T15:18:58.127Z,5.60
2018-02-17T15:21:25.132Z,5.70
2018-02-17T15:23:52.766Z,5.40
2018-02-17T15:26:19.716Z,5.70
2018-02-17T15:28:46.756Z,5.70
2018-02-17T15:31:13.707Z,5.60
2018-02-17T15:33:40.661Z,5.60
2018-02-17T15:36:07.838Z,5.40
2018-02-17T15:38:34.883Z,5.30
2018-02-17T15:41:02.160Z,5.20
2018-02-17T15:43:29.191Z,5.10
2018-02-17T15:45:56.167Z,5.00
2018-02-17T15:48:36.015Z,4.90
2018-02-17T15:51:06.044Z,4.90
2018-02-17T15:53:47.037Z,4.90
2018-02-17T15:56:14.588Z,5.00
2018-02-17T15:58:52.559Z,4.90
2018-02-17T16:01:20.171Z,4.80
2018-02-17T16:03:47.114Z,4.90
2018-02-17T16:06:18.630Z,4.90
2018-02-17T16:08:54.323Z,4.80
2018-02-17T16:11:34.922Z,4.60
2018-02-17T16:14:03.919Z,4.90
2018-02-17T16:16:32.908Z,4.90
2018-02-17T16:19:07.382Z,4.90
2018-02-17T16:21:43.830Z,4.70
2018-02-17T16:24:18.682Z,4.70
2018-02-17T16:26:56.962Z,4.70
2018-02-17T16:29:37.400Z,4.60
2018-02-17T16:32:18.277Z,4.70
2018-02-17T16:34:47.406Z,4.60
2018-02-17T16:37:14.402Z,4.50
2018-02-17T16:42:33.724Z,4.60
2018-02-17T16:45:02.860Z,4.50
2018-02-17T16:47:31.314Z,4.30
2018-02-17T16:49:59.562Z,4.20
2018-02-17T16:52:29.044Z,4.20
2018-02-17T16:55:00.209Z,4.20
2018-02-17T16:57:27.884Z,4.20
2018-02-17T16:59:55.944Z,4.20
2018-02-17T17:02:24.613Z,4.20
2018-02-17T17:04:51.795Z,4.20
2018-02-17T17:07:24.761Z,4.30
2018-02-17T17:10:00.901Z,4.20
2018-02-17T17:12:33.964Z,4.10
2018-02-17T17:15:12.000Z,4.10
2018-02-17T17:20:35.858Z,4.10
2018-02-17T17:23:17.444Z,4.10
2018-02-17T17:25:55.480Z,3.80
2018-02-17T17:28:25.797Z,3.90
2018-02-17T17:31:01.222Z,3.90
2018-02-17T17:33:38.354Z,3.90
2018-02-17T17:36:11.624Z,3.90
2018-02-17T17:38:40.994Z,4.00
2018-02-17T17:41:15.652Z,4.00
2018-02-17T17:43:48.421Z,4.10
2018-02-17T17:46:25.971Z,3.90
2018-02-17T17:49:00.907Z,3.80
2018-02-17T17:51:35.821Z,3.90
2018-02-17T17:54:12.052Z,3.90
2018-02-17T17:56:40.819Z,3.90
2018-02-17T17:59:10.437Z,3.90
2018-02-17T18:01:38.507Z,3.90
2018-02-17T18:04:08.327Z,3.90
2018-02-17T18:06:37.464Z,3.80
2018-02-17T18:09:05.524Z,3.90
2018-02-17T18:11:35.530Z,3.80
2018-02-17T18:14:05.503Z,3.80
2018-02-17T18:16:34.465Z,3.60
2018-02-17T18:19:03.292Z,3.60
2018-02-17T18:21:32.767Z,3.60
2018-02-17T18:23:59.750Z,3.60
2018-02-17T18:26:26.726Z,3.50
2018-02-17T18:28:54.431Z,3.40
2018-02-17T18:31:21.376Z,3.30
2018-02-17T18:33:48.321Z,3.40
2018-02-17T18:36:15.268Z,3.30
2018-02-17T18:38:42.220Z,3.30
2018-02-17T18:41:09.099Z,3.20
2018-02-17T18:43:36.120Z,3.30
2018-02-17T18:46:03.100Z,3.30
2018-02-17T18:48:29.977Z,3.40
2018-02-17T18:50:57.665Z,3.40
2018-02-17T18:53:24.552Z,3.40
2018-02-17T18:55:51.532Z,3.40
2018-02-17T18:58:18.425Z,3.40
2018-02-17T19:00:45.359Z,3.50
2018-02-17T19:03:12.314Z,3.40
2018-02-17T19:05:39.277Z,3.60
2018-02-17T19:08:06.226Z,3.50
2018-02-17T19:10:33.163Z,3.50
2018-02-17T19:13:00.114Z,3.50
2018-02-17T19:15:27.020Z,3.40
2018-02-17T19:17:53.972Z,3.30
2018-02-17T19:20:20.850Z,3.20
2018-02-17T19:22:47.816Z,3.20
2018-02-17T19:25:14.711Z,3.20
2018-02-17T19:27:41.588Z,3.20
2018-02-17T19:30:08.537Z,3.20
2018-02-17T19:32:35.506Z,3.20
2018-02-17T19:35:02.409Z,3.30
2018-02-17T19:37:29.367Z,3.30
2018-02-17T19:39:56.249Z,3.30
2018-02-17T19:42:23.202Z,3.20
2018-02-17T19:44:50.085Z,3.10
2018-02-17T19:47:16.972Z,3.10
2018-02-17T19:49:43.921Z,3.10
2018-02-17T19:52:10.803Z,3.10
2018-02-17T19:54:37.752Z,3.10
2018-02-17T19:57:04.638Z,3.10
2018-02-17T19:59:31.625Z,3.00
2018-02-17T20:01:59.287Z,3.00
2018-02-17T20:04:26.260Z,3.00
2018-02-17T20:06:53.209Z,2.90
2018-02-17T20:09:20.147Z,2.80
2018-02-17T20:11:47.096Z,2.80
2018-02-17T20:14:13.986Z,2.80
2018-02-17T20:16:40.928Z,2.70
2018-02-17T20:19:07.887Z,2.70
2018-02-17T20:21:34.819Z,2.70
2018-02-17T20:24:01.776Z,2.70
2018-02-17T20:26:28.712Z,2.70
2018-02-17T20:28:55.665Z,2.60
2018-02-17T20:31:22.533Z,2.70
2018-02-17T20:33:49.552Z,2.60
2018-02-17T20:36:16.456Z,2.60
2018-02-17T20:38:43.428Z,2.50
2018-02-17T20:41:10.316Z,2.50
2018-02-17T20:43:37.275Z,2.50
2018-02-17T20:46:04.930Z,2.50
2018-02-17T20:48:31.821Z,2.50
2018-02-17T20:50:58.816Z,2.50
2018-02-17T20:53:26.439Z,2.60
2018-02-17T20:55:53.425Z,2.60
2018-02-17T20:58:20.305Z,2.70
2018-02-17T21:00:47.184Z,2.70
2018-02-17T21:03:14.144Z,2.80
2018-02-17T21:05:46.259Z,2.90
2018-02-17T21:08:27.338Z,2.90
2018-02-17T21:10:55.821Z,2.80
2018-02-17T21:13:27.456Z,2.80
2018-02-17T21:16:01.114Z,2.80
2018-02-17T21:18:28.282Z,2.80
2018-02-17T21:21:04.596Z,2.80
2018-02-17T21:23:37.178Z,2.80
2018-02-17T21:26:06.494Z,2.80
2018-02-17T21:28:48.794Z,2.80
2018-02-17T21:31:31.011Z,2.70
2018-02-17T21:34:13.963Z,2.80
2018-02-17T21:36:58.311Z,2.70
2018-02-17T21:39:40.203Z,2.70
2018-02-17T21:42:21.906Z,2.70
2018-02-17T21:44:52.523Z,2.70
2018-02-17T21:47:26.393Z,2.70
2018-02-17T21:50:07.702Z,2.60
2018-02-17T21:52:49.771Z,2.50
2018-02-17T21:55:33.213Z,2.30
2018-02-17T21:58:15.103Z,2.30
2018-02-17T22:00:43.061Z,2.20
2018-02-17T22:03:24.319Z,2.10
2018-02-17T22:06:06.252Z,2.10
2018-02-17T22:08:34.266Z,2.10
2018-02-17T22:11:12.366Z,2.10
2018-02-17T22:13:46.111Z,2.00
2018-02-17T22:16:21.390Z,2.00
2018-02-17T22:19:02.770Z,1.90
2018-02-17T22:21:45.073Z,1.90
2018-02-17T22:24:29.529Z,1.90
2018-02-17T22:27:12.194Z,1.80
2018-02-17T22:29:54.071Z,1.80
2018-02-17T22:32:36.717Z,1.80
2018-02-17T22:35:10.681Z,1.80
2018-02-17T22:37:38.185Z,1.80
2018-02-17T22:40:16.900Z,1.80
2018-02-17T22:42:50.657Z,1.80
2018-02-17T22:45:20.370Z,1.80
2018-02-17T22:47:49.567Z,1.80
2018-02-17T22:50:18.566Z,1.80
2018-02-17T22:52:51.669Z,1.80
2018-02-17T22:55:29.759Z,1.80
2018-02-17T22:57:58.204Z,1.90
2018-02-17T23:00:36.505Z,1.90
2018-02-17T23:03:06.029Z,1.90
2018-02-17T23:05:36.731Z,1.90
2018-02-17T23:08:13.301Z,1.90
2018-02-17T23:10:44.396Z,2.00
2018-02-17T23:13:14.254Z,2.00
2018-02-17T23:15:47.689Z,2.10
2018-02-17T23:18:17.770Z,2.00
2018-02-17T23:20:50.672Z,2.10
2018-02-17T23:23:24.122Z,2.10
2018-02-17T23:26:01.259Z,2.10
2018-02-17T23:28:28.573Z,2.00
2018-02-17T23:30:55.708Z,1.90
2018-02-17T23:33:22.874Z,1.80
2018-02-17T23:35:50.060Z,1.80
2018-02-17T23:38:17.992Z,1.70
2018-02-17T23:40:45.079Z,1.70
2018-02-17T23:43:12.390Z,1.80
2018-02-17T23:45:40.516Z,1.80
2018-02-17T23:48:07.645Z,1.70
2018-02-17T23:50:34.754Z,1.70
2018-02-17T23:53:02.583Z,1.70
2018-02-17T23:55:29.738Z,1.70
2018-02-17T23:57:56.785Z,1.70
